createdAt,value
2022-11-20T00:03:33.604Z,100027.88
2022-11-20T00:08:39.927Z,100031.47
2022-11-20T00:13:41.551Z,100024.13
2022-11-20T00:18:45.895Z,100027.16
2022-11-20T00:23:47.731Z,100030.06
2022-11-20T00:28:57.826Z,100032.78
2022-11-20T00:33:59.488Z,100025.97
2022-11-20T00:39:03.651Z,100037.94
2022-11-20T00:44:05.454Z,100031.13
2022-11-20T00:49:07.039Z,100023.69
2022-11-20T00:54:08.698Z,100019.53
2022-11-20T00:59:12.632Z,100015.94
2022-11-20T01:04:21.662Z,100013.47
2022-11-20T01:09:23.437Z,100011.22
2022-11-20T01:14:33.634Z,100013.41
2022-11-20T01:19:35.246Z,100018.03
2022-11-20T01:24:36.771Z,100021.75
2022-11-20T01:29:38.318Z,100026.03
2022-11-20T01:34:39.881Z,100028.59
2022-11-20T01:39:43.794Z,100028.81
2022-11-20T01:44:55.635Z,100021.09
2022-11-20T01:50:02.523Z,100024.00
2022-11-20T01:55:16.358Z,100013.31
2022-11-20T02:00:19.939Z,100004.53
2022-11-20T02:05:42.680Z,100010.16
2022-11-20T02:10:44.234Z,100009.56
2022-11-20T02:15:47.068Z,100013.53
2022-11-20T02:20:59.856Z,100010.19
2022-11-20T02:26:05.316Z,100009.16
2022-11-20T02:31:06.892Z,100018.16
2022-11-20T02:36:12.699Z,100011.88
2022-11-20T02:41:14.238Z,100014.00
2022-11-20T02:46:21.718Z,100011.28
2022-11-20T02:51:24.176Z,100008.78
2022-11-20T02:56:26.649Z,100003.97
2022-11-20T03:01:28.268Z,99995.78
2022-11-20T03:06:29.869Z,100011.09
2022-11-20T03:11:31.413Z,99997.28
2022-11-20T03:16:33.643Z,100009.81
2022-11-20T03:21:35.624Z,99998.75
2022-11-20T03:26:37.262Z,99993.91
2022-11-20T03:31:44.097Z,99999.16
2022-11-20T03:36:45.723Z,99993.50
2022-11-20T03:41:47.398Z,99985.34
2022-11-20T03:46:49.248Z,99980.13
2022-11-20T03:51:50.791Z,99987.00
2022-11-20T03:56:52.340Z,99983.25
2022-11-20T04:01:53.931Z,99985.53
2022-11-20T04:06:55.781Z,99973.63
2022-11-20T04:11:57.730Z,99969.22
2022-11-20T04:16:59.276Z,99973.38
2022-11-20T04:22:00.823Z,99969.84
2022-11-20T04:27:02.350Z,99956.44
2022-11-20T04:32:03.965Z,99960.84
2022-11-20T04:37:51.583Z,99955.59
2022-11-20T04:42:57.808Z,99951.84
2022-11-20T04:48:03.856Z,99952.88
2022-11-20T04:53:05.420Z,99952.88
2022-11-20T04:58:09.773Z,99952.88
2022-11-20T05:03:11.368Z,99941.78
2022-11-20T05:08:28.028Z,99940.97
2022-11-20T05:13:29.860Z,99938.88
2022-11-20T05:18:37.381Z,99934.25
2022-11-20T05:23:39.986Z,99926.28
2022-11-20T05:28:41.576Z,99936.16
2022-11-20T05:33:44.684Z,99937.78
2022-11-20T05:38:50.320Z,99927.53
2022-11-20T05:43:52.617Z,99917.09
2022-11-20T05:48:58.286Z,99916.22
2022-11-20T05:54:03.800Z,99920.44
2022-11-20T05:59:05.339Z,99926.72
2022-11-20T06:04:06.938Z,99922.94
2022-11-20T06:09:08.466Z,99930.03
2022-11-20T06:14:10.063Z,99934.47
2022-11-20T06:19:11.639Z,99937.38
2022-11-20T06:24:13.204Z,99920.00
2022-11-20T06:29:14.799Z,99929.44
2022-11-20T06:34:16.357Z,99926.09
2022-11-20T06:39:17.947Z,99929.00
2022-11-20T06:44:19.480Z,99932.34
2022-11-20T06:49:21.437Z,99927.78
2022-11-20T06:54:23.240Z,99936.75
2022-11-20T06:59:27.884Z,99943.88
2022-11-20T07:04:29.416Z,99946.19
2022-11-20T07:09:30.952Z,99956.19
2022-11-20T07:14:32.518Z,99952.84
2022-11-20T07:19:34.063Z,99956.00
2022-11-20T07:24:35.888Z,99961.22
2022-11-20T07:29:37.432Z,99958.91
2022-11-20T07:34:39.064Z,99957.03
2022-11-20T07:39:40.687Z,99967.69
2022-11-20T07:44:42.277Z,99958.03
2022-11-20T07:49:43.807Z,99968.31
2022-11-20T07:54:51.909Z,99970.19
2022-11-20T07:59:57.868Z,99979.19
2022-11-20T08:04:59.408Z,99981.72
2022-11-20T08:10:00.992Z,99986.31
2022-11-20T08:15:02.686Z,99978.59
2022-11-20T08:20:04.704Z,99985.94
2022-11-20T08:25:06.603Z,99969.41
2022-11-20T08:30:08.978Z,99968.97
2022-11-20T08:35:16.099Z,99961.84
2022-11-20T08:40:19.700Z,99971.03
2022-11-20T08:45:21.974Z,99970.00
2022-11-20T08:50:23.577Z,99974.81
2022-11-20T08:55:25.130Z,99986.31
2022-11-20T09:00:30.047Z,99986.50
2022-11-20T09:05:31.628Z,99985.66
2022-11-20T09:10:33.961Z,100002.19
2022-11-20T09:15:35.565Z,100005.38
2022-11-20T09:20:40.060Z,100014.41
2022-11-20T09:25:46.009Z,100019.44
2022-11-20T09:30:47.588Z,100025.94
2022-11-20T09:35:57.884Z,100018.38
2022-11-20T09:41:05.091Z,100022.81
2022-11-20T09:46:16.072Z,100013.78
2022-11-20T09:51:38.363Z,100019.44
2022-11-20T09:56:45.624Z,100026.34
2022-11-20T10:01:47.490Z,100030.97
2022-11-20T10:13:00.554Z,100035.13
2022-11-20T10:18:17.200Z,100035.56
2022-11-20T10:23:25.629Z,100037.63
2022-11-20T10:28:39.857Z,100030.22
2022-11-20T10:34:10.639Z,100026.66
2022-11-20T10:39:38.844Z,100026.03
2022-11-20T10:45:05.830Z,100024.91
2022-11-20T10:50:22.471Z,100013.28
2022-11-20T10:55:48.049Z,100017.19
2022-11-20T11:00:49.668Z,100004.00
2022-11-20T11:06:07.979Z,99992.50
2022-11-20T11:11:32.652Z,99994.63
2022-11-20T11:16:34.459Z,99995.88
2022-11-20T11:21:36.843Z,99988.78
2022-11-20T11:26:38.391Z,99981.88
2022-11-20T11:31:40.048Z,99989.91
2022-11-20T11:36:50.414Z,99986.31
2022-11-20T11:41:52.844Z,99973.13
2022-11-20T11:46:56.560Z,99964.84
2022-11-20T11:52:01.131Z,99960.25
2022-11-20T11:57:11.291Z,99961.03
2022-11-20T12:02:31.406Z,99947.94
2022-11-20T12:07:51.360Z,99973.38
2022-11-20T12:13:03.527Z,100003.47
2022-11-20T12:18:15.539Z,100033.78
2022-11-20T12:23:28.675Z,100034.50
2022-11-20T12:28:37.954Z,100045.03
2022-11-20T12:34:03.864Z,100079.84
2022-11-20T12:39:36.741Z,100170.69
2022-11-20T12:45:21.381Z,100216.47
2022-11-20T12:51:00.205Z,100225.22
2022-11-20T12:56:44.827Z,100161.09
2022-11-20T13:01:53.723Z,100163.69
2022-11-20T13:06:55.888Z,100149.47
2022-11-20T13:12:15.643Z,100158.13
2022-11-20T13:17:36.749Z,100172.19
2022-11-20T13:22:53.586Z,100154.53
2022-11-20T13:27:57.054Z,100147.50
2022-11-20T13:33:06.504Z,100186.25
2022-11-20T13:38:15.908Z,100217.03
2022-11-20T13:43:39.652Z,100231.50
2022-11-20T13:48:45.428Z,100265.13
2022-11-20T13:54:27.865Z,100253.38
2022-11-20T13:59:55.067Z,100230.03
2022-11-20T14:04:59.902Z,100208.38
2022-11-20T14:10:01.466Z,100222.06
2022-11-20T14:15:03.264Z,100234.66
2022-11-20T14:20:08.312Z,100277.19
2022-11-20T14:25:16.553Z,100305.19
2022-11-20T14:30:21.413Z,100257.03
2022-11-20T14:35:27.592Z,100238.63
2022-11-20T14:40:37.129Z,100192.31
2022-11-20T14:45:39.533Z,100139.31
2022-11-20T14:50:41.200Z,100094.47
2022-11-20T14:55:42.763Z,100051.94
2022-11-20T15:01:03.449Z,100047.59
2022-11-20T15:06:11.288Z,100019.94
2022-11-20T15:11:30.565Z,99988.13
2022-11-20T15:16:32.641Z,99964.84
2022-11-20T15:21:34.726Z,99947.72
2022-11-20T15:26:38.586Z,99947.53
2022-11-20T15:31:45.776Z,99947.72
2022-11-20T15:36:47.330Z,99948.38
2022-11-20T15:41:48.886Z,99945.22
2022-11-20T15:46:50.530Z,99942.06
2022-11-20T15:51:53.731Z,99955.66
2022-11-20T15:56:55.373Z,99978.47
2022-11-20T16:01:57.279Z,99978.06
2022-11-20T16:06:59.695Z,99974.09
2022-11-20T16:12:01.588Z,99972.25
2022-11-20T16:17:04.020Z,99961.34
2022-11-20T16:22:05.650Z,99947.94
2022-11-20T16:27:07.215Z,99927.44
2022-11-20T16:32:09.650Z,99910.88
2022-11-20T16:37:11.200Z,99903.53
2022-11-20T16:42:12.791Z,99905.84
2022-11-20T16:47:14.355Z,99899.16
2022-11-20T16:52:15.904Z,99882.59
2022-11-20T16:57:17.447Z,99883.88
2022-11-20T17:02:19.108Z,99880.94
2022-11-20T17:07:20.761Z,99882.59
2022-11-20T17:12:22.324Z,99874.00
2022-11-20T17:17:23.891Z,99873.81
2022-11-20T17:22:25.531Z,99844.25
2022-11-20T17:27:27.348Z,99780.66
2022-11-20T17:32:28.892Z,99717.81
2022-11-20T17:37:30.475Z,99672.94
2022-11-20T17:42:36.775Z,99665.31
2022-11-20T17:47:38.636Z,99660.88
2022-11-20T17:52:40.231Z,99673.69
2022-11-20T17:57:55.931Z,99660.63
2022-11-20T18:02:57.659Z,99631.25
2022-11-20T18:07:59.218Z,99621.50
2022-11-20T18:13:01.050Z,99595.38
2022-11-20T18:18:02.691Z,99580.97
2022-11-20T18:23:04.242Z,99566.06
2022-11-20T18:28:05.806Z,99535.47
2022-11-20T18:33:07.377Z,99507.16
2022-11-20T18:38:08.946Z,99479.84
2022-11-20T18:43:30.142Z,99456.53
2022-11-20T18:48:32.303Z,99450.28
2022-11-20T18:53:37.349Z,99450.72
2022-11-20T18:58:41.170Z,99448.44
2022-11-20T19:03:43.718Z,99453.03
2022-11-20T19:08:45.849Z,99451.16
2022-11-20T19:13:47.402Z,99461.19
2022-11-20T19:18:49.346Z,99463.91
2022-11-20T19:23:53.693Z,99473.06
2022-11-20T19:28:55.597Z,99486.63
2022-11-20T19:34:00.058Z,99482.88
2022-11-20T19:39:02.973Z,99476.63
2022-11-20T19:44:05.828Z,99496.88
2022-11-20T19:49:10.292Z,99499.81
2022-11-20T19:54:12.082Z,99500.66
2022-11-20T19:59:14.125Z,99515.50
2022-11-20T20:04:15.746Z,99515.25
2022-11-20T20:09:17.317Z,99511.09
2022-11-20T20:14:19.255Z,99520.91
2022-11-20T20:19:20.863Z,99522.19
2022-11-20T20:24:22.468Z,99539.09
2022-11-20T20:29:24.314Z,99545.97
2022-11-20T20:34:29.681Z,99582.09
2022-11-20T20:39:31.276Z,99584.78
2022-11-20T20:44:51.512Z,99571.03
2022-11-20T20:49:53.096Z,99570.41
2022-11-20T20:54:55.684Z,99572.50
2022-11-20T20:59:57.286Z,99571.63
2022-11-20T21:04:59.973Z,99587.28
2022-11-20T21:10:01.556Z,99591.47
2022-11-20T21:15:03.266Z,99604.41
2022-11-20T21:20:25.200Z,99607.97
2022-11-20T21:25:26.767Z,99613.81
2022-11-20T21:30:28.467Z,99625.47
2022-11-20T21:35:30.034Z,99622.16
2022-11-20T21:40:31.727Z,99621.72
2022-11-20T21:45:33.263Z,99613.78
2022-11-20T21:50:34.908Z,99632.78
2022-11-20T21:55:36.447Z,99643.22
2022-11-20T22:00:38.036Z,99652.63
2022-11-20T22:05:39.624Z,99644.88
2022-11-20T22:10:41.170Z,99657.63
2022-11-20T22:15:59.727Z,99652.19
2022-11-20T22:21:08.436Z,99649.88
2022-11-20T22:26:21.818Z,99639.66
2022-11-20T22:31:25.484Z,99643.19
2022-11-20T22:36:28.978Z,99642.53
2022-11-20T22:41:31.453Z,99640.03
2022-11-20T22:46:35.127Z,99640.88
2022-11-20T22:51:39.600Z,99631.00
2022-11-20T22:56:41.602Z,99647.06
2022-11-20T23:01:43.151Z,99633.03
2022-11-20T23:06:44.753Z,99635.94
2022-11-20T23:11:46.288Z,99640.28
2022-11-20T23:16:48.369Z,99653.44
2022-11-20T23:21:49.972Z,99654.91
2022-11-20T23:26:51.535Z,99663.75
2022-11-20T23:31:53.125Z,99685.78
2022-11-20T23:36:54.720Z,99700.22
2022-11-20T23:41:56.282Z,99687.06
2022-11-20T23:46:57.849Z,99648.03
2022-11-20T23:51:59.394Z,99636.75
2022-11-20T23:57:01.111Z,99633.41
